sensor_id;sensor_type;location;lat;lon;timestamp;pressure;altitude;pressure_sealevel;temperature;humidity
4410;BME280;2218;51.408;7.208;2023-05-09T00:00:29;99975.34;;;21.60;53.75
4410;BME280;2218;51.408;7.208;2023-05-09T00:02:57;99975.34;;;21.60;54.10
4410;BME280;2218;51.408;7.208;2023-05-09T00:05:24;99968.38;;;21.59;53.85
4410;BME280;2218;51.408;7.208;2023-05-09T00:07:51;99964.78;;;21.60;53.70
4410;BME280;2218;51.408;7.208;2023-05-09T00:10:18;99960.44;;;21.59;53.83
4410;BME280;2218;51.408;7.208;2023-05-09T00:12:47;99956.97;;;21.58;53.78
4410;BME280;2218;51.408;7.208;2023-05-09T00:15:14;99958.75;;;21.58;54.26
4410;BME280;2218;51.408;7.208;2023-05-09T00:17:41;99956.09;;;21.58;54.25
4410;BME280;2218;51.408;7.208;2023-05-09T00:20:09;99956.09;;;21.58;53.74
4410;BME280;2218;51.408;7.208;2023-05-09T00:22:38;99950.81;;;21.58;53.73
4410;BME280;2218;51.408;7.208;2023-05-09T00:25:07;99943.84;;;21.57;53.91
4410;BME280;2218;51.408;7.208;2023-05-09T00:27:34;99943.84;;;21.57;53.90
4410;BME280;2218;51.408;7.208;2023-05-09T00:30:05;99944.81;;;21.56;54.12
4410;BME280;2218;51.408;7.208;2023-05-09T00:32:32;99949.13;;;21.57;53.99
4410;BME280;2218;51.408;7.208;2023-05-09T00:34:59;99950.09;;;21.56;54.22
4410;BME280;2218;51.408;7.208;2023-05-09T00:37:27;99944.81;;;21.56;54.19
4410;BME280;2218;51.408;7.208;2023-05-09T00:39:55;99939.50;;;21.56;53.67
4410;BME280;2218;51.408;7.208;2023-05-09T00:42:22;99935.19;;;21.55;53.84
4410;BME280;2218;51.408;7.208;2023-05-09T00:44:49;99926.28;;;21.56;53.66
4410;BME280;2218;51.408;7.208;2023-05-09T00:47:17;99925.44;;;21.55;53.82
4410;BME280;2218;51.408;7.208;2023-05-09T00:49:44;99916.69;;;21.55;54.03
4410;BME280;2218;51.408;7.208;2023-05-09T00:52:11;99914.03;;;21.55;54.21
4410;BME280;2218;51.408;7.208;2023-05-09T00:54:39;99908.75;;;21.55;54.20
4410;BME280;2218;51.408;7.208;2023-05-09T00:57:06;99904.41;;;21.54;54.18
4410;BME280;2218;51.408;7.208;2023-05-09T00:59:33;99902.63;;;21.54;54.22
4410;BME280;2218;51.408;7.208;2023-05-09T01:02:00;99902.63;;;21.54;53.96
4410;BME280;2218;51.408;7.208;2023-05-09T01:04:28;99894.78;;;21.53;53.72
4410;BME280;2218;51.408;7.208;2023-05-09T01:07:03;99896.47;;;21.54;54.06
4410;BME280;2218;51.408;7.208;2023-05-09T01:09:37;99893.84;;;21.54;53.87
4410;BME280;2218;51.408;7.208;2023-05-09T01:12:15;99886.84;;;21.53;54.08
4410;BME280;2218;51.408;7.208;2023-05-09T01:14:56;99882.50;;;21.52;53.60
4410;BME280;2218;51.408;7.208;2023-05-09T01:17:36;99886.00;;;21.52;54.00
4410;BME280;2218;51.408;7.208;2023-05-09T01:20:15;99879.03;;;21.51;53.67
4410;BME280;2218;51.408;7.208;2023-05-09T01:22:51;99874.59;;;21.52;54.08
4410;BME280;2218;51.408;7.208;2023-05-09T01:25:47;99871.94;;;21.52;53.90
4410;BME280;2218;51.408;7.208;2023-05-09T01:28:35;99863.16;;;21.51;53.67
4410;BME280;2218;51.408;7.208;2023-05-09T01:31:12;99862.34;;;21.51;54.12
4410;BME280;2218;51.408;7.208;2023-05-09T01:33:44;99875.56;;;21.51;53.65
4410;BME280;2218;51.408;7.208;2023-05-09T01:36:16;99875.56;;;21.51;53.58
4410;BME280;2218;51.408;7.208;2023-05-09T01:38:44;99870.25;;;21.51;53.63
4410;BME280;2218;51.408;7.208;2023-05-09T01:41:15;99855.38;;;21.50;53.65
4410;BME280;2218;51.408;7.208;2023-05-09T01:43:45;99859.69;;;21.51;53.57
4410;BME280;2218;51.408;7.208;2023-05-09T01:46:17;99858.00;;;21.50;53.86
4410;BME280;2218;51.408;7.208;2023-05-09T01:48:46;99863.28;;;21.50;54.10
4410;BME280;2218;51.408;7.208;2023-05-09T01:51:15;99857.16;;;21.49;53.89
4410;BME280;2218;51.408;7.208;2023-05-09T01:53:44;99851.03;;;21.49;53.74
4410;BME280;2218;51.408;7.208;2023-05-09T01:56:13;99856.31;;;21.49;53.74
4410;BME280;2218;51.408;7.208;2023-05-09T01:58:42;99856.31;;;21.49;53.79
4410;BME280;2218;51.408;7.208;2023-05-09T02:01:10;99851.88;;;21.49;54.11
4410;BME280;2218;51.408;7.208;2023-05-09T02:03:42;99843.09;;;21.49;53.70
4410;BME280;2218;51.408;7.208;2023-05-09T02:06:11;99839.59;;;21.48;53.65
4410;BME280;2218;51.408;7.208;2023-05-09T02:08:40;99839.59;;;21.48;53.62
4410;BME280;2218;51.408;7.208;2023-05-09T02:11:08;99833.47;;;21.48;53.83
4410;BME280;2218;51.408;7.208;2023-05-09T02:13:35;99842.25;;;21.48;54.03
4410;BME280;2218;51.408;7.208;2023-05-09T02:16:04;99836.94;;;21.48;53.99
4410;BME280;2218;51.408;7.208;2023-05-09T02:18:32;99833.47;;;21.48;53.86
4410;BME280;2218;51.408;7.208;2023-05-09T02:21:02;99838.75;;;21.48;53.90
4410;BME280;2218;51.408;7.208;2023-05-09T02:23:29;99844.03;;;21.48;53.65
4410;BME280;2218;51.408;7.208;2023-05-09T02:25:56;99843.19;;;21.47;53.56
4410;BME280;2218;51.408;7.208;2023-05-09T02:28:26;99845.00;;;21.47;53.37
4410;BME280;2218;51.408;7.208;2023-05-09T02:30:56;99837.06;;;21.47;53.51
4410;BME280;2218;51.408;7.208;2023-05-09T02:33:25;99831.06;;;21.45;53.69
4410;BME280;2218;51.408;7.208;2023-05-09T02:35:54;99835.41;;;21.46;53.53
4410;BME280;2218;51.408;7.208;2023-05-09T02:38:23;99833.72;;;21.45;53.98
4410;BME280;2218;51.408;7.208;2023-05-09T02:40:52;99833.72;;;21.45;53.55
4410;BME280;2218;51.408;7.208;2023-05-09T02:43:19;99843.34;;;21.46;53.51
4410;BME280;2218;51.408;7.208;2023-05-09T02:45:46;99833.72;;;21.45;53.74
4410;BME280;2218;51.408;7.208;2023-05-09T02:48:13;99836.38;;;21.45;53.63
4410;BME280;2218;51.408;7.208;2023-05-09T02:50:40;99840.81;;;21.44;53.59
4410;BME280;2218;51.408;7.208;2023-05-09T02:53:08;99837.31;;;21.44;53.88
4410;BME280;2218;51.408;7.208;2023-05-09T02:55:36;99838.16;;;21.44;53.70
4410;BME280;2218;51.408;7.208;2023-05-09T02:58:03;99831.16;;;21.43;53.54
4410;BME280;2218;51.408;7.208;2023-05-09T03:00:31;99834.78;;;21.42;53.64
4410;BME280;2218;51.408;7.208;2023-05-09T03:02:59;99833.81;;;21.43;53.70
4410;BME280;2218;51.408;7.208;2023-05-09T03:05:26;99831.16;;;21.43;53.79
4410;BME280;2218;51.408;7.208;2023-05-09T03:07:53;99832.97;;;21.42;53.45
4410;BME280;2218;51.408;7.208;2023-05-09T03:10:20;99830.31;;;21.42;53.90
4410;BME280;2218;51.408;7.208;2023-05-09T03:12:48;99826.84;;;21.42;53.52
4410;BME280;2218;51.408;7.208;2023-05-09T03:15:15;99822.53;;;21.41;53.50
4410;BME280;2218;51.408;7.208;2023-05-09T03:17:45;99818.91;;;21.42;53.65
4410;BME280;2218;51.408;7.208;2023-05-09T03:20:12;99822.53;;;21.41;53.45
4410;BME280;2218;51.408;7.208;2023-05-09T03:22:40;99818.06;;;21.41;53.58
4410;BME280;2218;51.408;7.208;2023-05-09T03:25:09;99812.78;;;21.41;53.65
4410;BME280;2218;51.408;7.208;2023-05-09T03:27:37;99818.06;;;21.41;53.76
4410;BME280;2218;51.408;7.208;2023-05-09T03:30:11;99815.56;;;21.40;53.88
4410;BME280;2218;51.408;7.208;2023-05-09T03:32:39;99812.78;;;21.41;53.61
4410;BME280;2218;51.408;7.208;2023-05-09T03:35:07;99811.13;;;21.40;53.89
4410;BME280;2218;51.408;7.208;2023-05-09T03:37:34;99804.16;;;21.39;53.96
4410;BME280;2218;51.408;7.208;2023-05-09T03:40:01;99810.28;;;21.40;53.70
4410;BME280;2218;51.408;7.208;2023-05-09T03:42:33;99804.16;;;21.39;53.50
4410;BME280;2218;51.408;7.208;2023-05-09T03:45:01;99809.44;;;21.39;53.51
4410;BME280;2218;51.408;7.208;2023-05-09T03:47:30;99805.94;;;21.39;53.57
4410;BME280;2218;51.408;7.208;2023-05-09T03:49:57;99805.13;;;21.38;53.78
4410;BME280;2218;51.408;7.208;2023-05-09T03:52:24;99813.03;;;21.38;53.55
4410;BME280;2218;51.408;7.208;2023-05-09T03:54:51;99805.94;;;21.39;53.98
4410;BME280;2218;51.408;7.208;2023-05-09T03:57:18;99802.47;;;21.38;53.91
4410;BME280;2218;51.408;7.208;2023-05-09T03:59:48;99800.75;;;21.37;53.64
4410;BME280;2218;51.408;7.208;2023-05-09T04:02:16;99806.03;;;21.37;53.74
4410;BME280;2218;51.408;7.208;2023-05-09T04:04:45;99807.75;;;21.38;53.63
4410;BME280;2218;51.408;7.208;2023-05-09T04:07:13;99803.31;;;21.39;53.88
4410;BME280;2218;51.408;7.208;2023-05-09T04:09:40;99804.16;;;21.39;53.98
4410;BME280;2218;51.408;7.208;2023-05-09T04:12:08;99802.47;;;21.38;53.86
4410;BME280;2218;51.408;7.208;2023-05-09T04:14:35;99796.31;;;21.38;53.42
4410;BME280;2218;51.408;7.208;2023-05-09T04:17:02;99795.38;;;21.39;53.57
4410;BME280;2218;51.408;7.208;2023-05-09T04:19:29;99790.19;;;21.37;53.50
4410;BME280;2218;51.408;7.208;2023-05-09T04:21:57;99785.75;;;21.38;53.83
4410;BME280;2218;51.408;7.208;2023-05-09T04:24:24;99784.91;;;21.37;53.82
4410;BME280;2218;51.408;7.208;2023-05-09T04:26:51;99785.75;;;21.38;53.59
4410;BME280;2218;51.408;7.208;2023-05-09T04:29:21;99786.59;;;21.38;53.41
4410;BME280;2218;51.408;7.208;2023-05-09T04:31:52;99780.44;;;21.38;53.57
4410;BME280;2218;51.408;7.208;2023-05-09T04:34:22;99781.31;;;21.38;53.68
4410;BME280;2218;51.408;7.208;2023-05-09T04:36:51;99778.78;;;21.37;53.82
4410;BME280;2218;51.408;7.208;2023-05-09T04:39:20;99782.25;;;21.37;53.70
4410;BME280;2218;51.408;7.208;2023-05-09T04:41:56;99774.31;;;21.37;53.53
4410;BME280;2218;51.408;7.208;2023-05-09T04:44:23;99769.03;;;21.37;53.90
4410;BME280;2218;51.408;7.208;2023-05-09T04:46:50;99778.78;;;21.37;53.64
4410;BME280;2218;51.408;7.208;2023-05-09T04:49:19;99766.38;;;21.37;53.72
4410;BME280;2218;51.408;7.208;2023-05-09T04:51:46;99762.06;;;21.36;53.68
4410;BME280;2218;51.408;7.208;2023-05-09T04:54:14;99760.25;;;21.37;53.88
4410;BME280;2218;51.408;7.208;2023-05-09T04:56:43;99762.06;;;21.36;53.74
4410;BME280;2218;51.408;7.208;2023-05-09T04:59:10;99756.78;;;21.36;53.93
4410;BME280;2218;51.408;7.208;2023-05-09T05:01:37;99754.13;;;21.36;53.96
4410;BME280;2218;51.408;7.208;2023-05-09T05:04:04;99751.50;;;21.36;53.66
4410;BME280;2218;51.408;7.208;2023-05-09T05:06:32;99753.19;;;21.37;53.81
4410;BME280;2218;51.408;7.208;2023-05-09T05:08:59;99751.50;;;21.36;53.83
4410;BME280;2218;51.408;7.208;2023-05-09T05:11:26;99744.53;;;21.35;53.52
4410;BME280;2218;51.408;7.208;2023-05-09T05:13:55;99745.38;;;21.36;54.06
4410;BME280;2218;51.408;7.208;2023-05-09T05:16:22;99733.81;;;21.37;53.56
4410;BME280;2218;51.408;7.208;2023-05-09T05:18:49;99731.31;;;21.35;53.56
4410;BME280;2218;51.408;7.208;2023-05-09T05:21:18;99729.50;;;21.36;53.50
4410;BME280;2218;51.408;7.208;2023-05-09T05:23:47;99728.66;;;21.35;53.75
4410;BME280;2218;51.408;7.208;2023-05-09T05:26:15;99731.19;;;21.37;53.77
4410;BME280;2218;51.408;7.208;2023-05-09T05:28:42;99733.00;;;21.36;53.70
4410;BME280;2218;51.408;7.208;2023-05-09T05:31:10;99733.81;;;21.37;53.98
4410;BME280;2218;51.408;7.208;2023-05-09T05:33:37;99740.09;;;21.36;53.64
4410;BME280;2218;51.408;7.208;2023-05-09T05:36:05;99746.22;;;21.36;53.94
4410;BME280;2218;51.408;7.208;2023-05-09T05:38:32;99740.94;;;21.36;53.89
4410;BME280;2218;51.408;7.208;2023-05-09T05:40:59;99737.44;;;21.36;54.04
4410;BME280;2218;51.408;7.208;2023-05-09T05:43:28;99735.63;;;21.36;54.08
4410;BME280;2218;51.408;7.208;2023-05-09T05:45:55;99733.00;;;21.36;53.83
4410;BME280;2218;51.408;7.208;2023-05-09T05:48:25;99728.53;;;21.37;53.71
4410;BME280;2218;51.408;7.208;2023-05-09T05:50:53;99721.44;;;21.37;53.90
4410;BME280;2218;51.408;7.208;2023-05-09T05:53:24;99726.75;;;21.37;53.71
4410;BME280;2218;51.408;7.208;2023-05-09T05:55:51;99724.00;;;21.39;53.79
4410;BME280;2218;51.408;7.208;2023-05-09T05:58:18;99724.84;;;21.39;54.04
4410;BME280;2218;51.408;7.208;2023-05-09T06:00:45;99724.84;;;21.39;54.03
4410;BME280;2218;51.408;7.208;2023-05-09T06:03:12;99725.66;;;21.40;53.64
4410;BME280;2218;51.408;7.208;2023-05-09T06:05:46;99727.47;;;21.39;53.74
4410;BME280;2218;51.408;7.208;2023-05-09T06:08:13;99719.53;;;21.39;54.05
4410;BME280;2218;51.408;7.208;2023-05-09T06:10:40;99720.38;;;21.40;53.78
4410;BME280;2218;51.408;7.208;2023-05-09T06:13:07;99722.06;;;21.41;54.06
4410;BME280;2218;51.408;7.208;2023-05-09T06:15:37;99720.13;;;21.43;54.10
4410;BME280;2218;51.408;7.208;2023-05-09T06:18:04;99705.97;;;21.44;54.01
4410;BME280;2218;51.408;7.208;2023-05-09T06:20:30;99711.84;;;21.48;54.41
4410;BME280;2218;51.408;7.208;2023-05-09T06:22:59;99708.00;;;21.52;54.63
4410;BME280;2218;51.408;7.208;2023-05-09T06:25:26;99702.22;;;21.58;54.58
4410;BME280;2218;51.408;7.208;2023-05-09T06:27:53;99700.03;;;21.63;54.64
4410;BME280;2218;51.408;7.208;2023-05-09T06:30:20;99691.75;;;21.67;54.74
4410;BME280;2218;51.408;7.208;2023-05-09T06:32:46;99694.03;;;21.72;54.57
4410;BME280;2218;51.408;7.208;2023-05-09T06:35:13;99686.56;;;21.77;54.51
4410;BME280;2218;51.408;7.208;2023-05-09T06:37:41;99673.94;;;21.81;54.17
4410;BME280;2218;51.408;7.208;2023-05-09T06:40:09;99674.41;;;21.86;54.44
4410;BME280;2218;51.408;7.208;2023-05-09T06:42:36;99667.91;;;21.90;53.83
4410;BME280;2218;51.408;7.208;2023-05-09T06:45:05;99672.09;;;21.92;53.88
4410;BME280;2218;51.408;7.208;2023-05-09T06:47:32;99667.41;;;21.96;54.00
4410;BME280;2218;51.408;7.208;2023-05-09T06:49:59;99664.63;;;21.98;54.48
4410;BME280;2218;51.408;7.208;2023-05-09T06:52:26;99667.03;;;22.01;54.29
4410;BME280;2218;51.408;7.208;2023-05-09T06:54:53;99662.44;;;22.03;54.46
4410;BME280;2218;51.408;7.208;2023-05-09T06:57:21;99657.88;;;22.05;53.82
4410;BME280;2218;51.408;7.208;2023-05-09T06:59:48;99655.94;;;22.07;54.02
4410;BME280;2218;51.408;7.208;2023-05-09T07:02:15;99653.06;;;22.10;53.84
4410;BME280;2218;51.408;7.208;2023-05-09T07:04:42;99656.44;;;22.12;54.47
4410;BME280;2218;51.408;7.208;2023-05-09T07:07:09;99655.50;;;22.13;54.15
4410;BME280;2218;51.408;7.208;2023-05-09T07:09:36;99664.13;;;22.15;54.47
4410;BME280;2218;51.408;7.208;2023-05-09T07:12:04;99639.34;;;22.16;54.37
4410;BME280;2218;51.408;7.208;2023-05-09T07:14:32;99633.81;;;22.19;54.39
4410;BME280;2218;51.408;7.208;2023-05-09T07:16:59;99626.56;;;22.21;53.97
4410;BME280;2218;51.408;7.208;2023-05-09T07:19:26;99627.16;;;22.25;54.13
4410;BME280;2218;51.408;7.208;2023-05-09T07:21:53;99612.13;;;22.25;53.82
4410;BME280;2218;51.408;7.208;2023-05-09T07:24:20;99610.16;;;22.27;54.26
4410;BME280;2218;51.408;7.208;2023-05-09T07:26:47;99612.81;;;22.27;53.46
4410;BME280;2218;51.408;7.208;2023-05-09T07:29:14;99604.63;;;22.30;53.54
4410;BME280;2218;51.408;7.208;2023-05-09T07:31:43;99611.50;;;22.33;53.68
4410;BME280;2218;51.408;7.208;2023-05-09T07:34:10;99611.34;;;22.34;53.70
4410;BME280;2218;51.408;7.208;2023-05-09T07:36:37;99605.09;;;22.35;53.88
4410;BME280;2218;51.408;7.208;2023-05-09T07:39:04;99606.66;;;22.38;53.98
4410;BME280;2218;51.408;7.208;2023-05-09T07:41:32;99602.19;;;22.38;53.69
4410;BME280;2218;51.408;7.208;2023-05-09T07:43:59;99597.59;;;22.40;53.95
4410;BME280;2218;51.408;7.208;2023-05-09T07:46:26;99600.00;;;22.43;53.81
4410;BME280;2218;51.408;7.208;2023-05-09T07:48:54;99594.56;;;22.45;53.49
4410;BME280;2218;51.408;7.208;2023-05-09T07:51:21;99594.41;;;22.47;53.92
4410;BME280;2218;51.408;7.208;2023-05-09T07:53:48;99595.16;;;22.49;53.61
4410;BME280;2218;51.408;7.208;2023-05-09T07:56:15;99594.16;;;22.50;53.62
4410;BME280;2218;51.408;7.208;2023-05-09T07:58:42;99589.56;;;22.52;53.13
4410;BME280;2218;51.408;7.208;2023-05-09T08:01:09;99586.69;;;22.55;53.91
4410;BME280;2218;51.408;7.208;2023-05-09T08:03:36;99568.81;;;22.57;53.45
4410;BME280;2218;51.408;7.208;2023-05-09T08:06:04;99572.22;;;22.59;53.39
4410;BME280;2218;51.408;7.208;2023-05-09T08:08:32;99566.91;;;22.59;53.08
4410;BME280;2218;51.408;7.208;2023-05-09T08:10:59;99569.56;;;22.59;53.22
4410;BME280;2218;51.408;7.208;2023-05-09T08:13:26;99561.63;;;22.59;53.17
4410;BME280;2218;51.408;7.208;2023-05-09T08:15:53;99557.16;;;22.59;53.09
4410;BME280;2218;51.408;7.208;2023-05-09T08:18:20;99558.81;;;22.60;53.23
4410;BME280;2218;51.408;7.208;2023-05-09T08:20:47;99559.66;;;22.61;53.29
4410;BME280;2218;51.408;7.208;2023-05-09T08:23:15;99552.56;;;22.61;52.87
4410;BME280;2218;51.408;7.208;2023-05-09T08:25:42;99557.72;;;22.63;53.19
4410;BME280;2218;51.408;7.208;2023-05-09T08:28:09;99548.91;;;22.62;52.94
4410;BME280;2218;51.408;7.208;2023-05-09T08:30:36;99548.22;;;22.60;53.57
4410;BME280;2218;51.408;7.208;2023-05-09T08:33:04;99547.41;;;22.60;53.56
4410;BME280;2218;51.408;7.208;2023-05-09T08:35:31;99543.19;;;22.57;53.05
4410;BME280;2218;51.408;7.208;2023-05-09T08:37:57;99547.66;;;22.57;53.06
4410;BME280;2218;51.408;7.208;2023-05-09T08:40:26;99543.31;;;22.56;53.33
4410;BME280;2218;51.408;7.208;2023-05-09T08:42:53;99542.34;;;22.57;52.96
4410;BME280;2218;51.408;7.208;2023-05-09T08:45:25;99533.84;;;22.53;53.09
4410;BME280;2218;51.408;7.208;2023-05-09T08:47:55;99533.00;;;22.53;53.93
4410;BME280;2218;51.408;7.208;2023-05-09T08:50:23;99536.59;;;22.52;53.52
4410;BME280;2218;51.408;7.208;2023-05-09T08:52:51;99525.91;;;22.53;53.78
4410;BME280;2218;51.408;7.208;2023-05-09T08:55:18;99519.78;;;22.53;53.09
4410;BME280;2218;51.408;7.208;2023-05-09T08:57:48;99519.78;;;22.53;53.09
4410;BME280;2218;51.408;7.208;2023-05-09T09:00:16;99521.44;;;22.54;53.51
4410;BME280;2218;51.408;7.208;2023-05-09T09:02:45;99515.16;;;22.55;53.75
4410;BME280;2218;51.408;7.208;2023-05-09T09:05:13;99516.16;;;22.54;53.37
4410;BME280;2218;51.408;7.208;2023-05-09T09:07:41;99508.06;;;22.55;53.41
4410;BME280;2218;51.408;7.208;2023-05-09T09:10:10;99508.91;;;22.56;53.22
4410;BME280;2218;51.408;7.208;2023-05-09T09:12:38;99503.59;;;22.56;53.71
4410;BME280;2218;51.408;7.208;2023-05-09T09:15:13;99503.59;;;22.56;53.49
4410;BME280;2218;51.408;7.208;2023-05-09T09:17:43;99499.13;;;22.56;53.34
4410;BME280;2218;51.408;7.208;2023-05-09T09:20:17;99496.63;;;22.55;53.63
4410;BME280;2218;51.408;7.208;2023-05-09T09:22:51;99495.66;;;22.56;53.71
4410;BME280;2218;51.408;7.208;2023-05-09T09:25:21;99490.34;;;22.56;53.24
4410;BME280;2218;51.408;7.208;2023-05-09T09:27:48;99487.69;;;22.56;53.49
4410;BME280;2218;51.408;7.208;2023-05-09T09:30:17;99478.78;;;22.57;53.53
4410;BME280;2218;51.408;7.208;2023-05-09T09:32:44;99477.94;;;22.56;53.16
4410;BME280;2218;51.408;7.208;2023-05-09T09:35:11;99468.19;;;22.57;53.05
4410;BME280;2218;51.408;7.208;2023-05-09T09:37:39;99474.47;;;22.56;53.47
4410;BME280;2218;51.408;7.208;2023-05-09T09:40:09;99471.81;;;22.56;53.22
4410;BME280;2218;51.408;7.208;2023-05-09T09:42:41;99461.22;;;22.56;53.36
4410;BME280;2218;51.408;7.208;2023-05-09T09:45:10;99455.91;;;22.56;53.62
4410;BME280;2218;51.408;7.208;2023-05-09T09:47:41;99460.38;;;22.55;53.15
4410;BME280;2218;51.408;7.208;2023-05-09T09:50:10;99464.84;;;22.55;53.17
4410;BME280;2218;51.408;7.208;2023-05-09T09:52:43;99458.72;;;22.54;53.34
4410;BME280;2218;51.408;7.208;2023-05-09T09:55:10;99444.50;;;22.55;53.16
4410;BME280;2218;51.408;7.208;2023-05-09T09:57:38;99450.78;;;22.54;53.15
4410;BME280;2218;51.408;7.208;2023-05-09T10:00:10;99448.28;;;22.53;52.97
4410;BME280;2218;51.408;7.208;2023-05-09T10:02:49;99447.28;;;22.54;53.04
4410;BME280;2218;51.408;7.208;2023-05-09T10:05:20;99440.31;;;22.53;53.54
4410;BME280;2218;51.408;7.208;2023-05-09T10:07:54;99433.22;;;22.53;53.43
4410;BME280;2218;51.408;7.208;2023-05-09T10:10:24;99428.75;;;22.54;53.32
4410;BME280;2218;51.408;7.208;2023-05-09T10:12:55;99430.41;;;22.55;53.16
4410;BME280;2218;51.408;7.208;2023-05-09T10:15:24;99423.44;;;22.54;53.28
4410;BME280;2218;51.408;7.208;2023-05-09T10:17:56;99420.81;;;22.54;53.51
4410;BME280;2218;51.408;7.208;2023-05-09T10:20:23;99415.50;;;22.54;53.35
4410;BME280;2218;51.408;7.208;2023-05-09T10:22:55;99414.66;;;22.53;53.58
4410;BME280;2218;51.408;7.208;2023-05-09T10:25:32;99411.03;;;22.54;53.02
4410;BME280;2218;51.408;7.208;2023-05-09T10:27:59;99420.81;;;22.54;52.92
4410;BME280;2218;51.408;7.208;2023-05-09T10:30:35;99415.50;;;22.54;52.99
4410;BME280;2218;51.408;7.208;2023-05-09T10:33:08;99408.53;;;22.53;52.88
4410;BME280;2218;51.408;7.208;2023-05-09T10:35:45;99406.72;;;22.53;52.75
4410;BME280;2218;51.408;7.208;2023-05-09T10:38:13;99408.53;;;22.53;53.25
4410;BME280;2218;51.408;7.208;2023-05-09T10:40:40;99404.91;;;22.54;52.85
4410;BME280;2218;51.408;7.208;2023-05-09T10:43:07;99398.63;;;22.55;52.86
4410;BME280;2218;51.408;7.208;2023-05-09T10:45:35;99386.38;;;22.54;52.53
4410;BME280;2218;51.408;7.208;2023-05-09T10:48:04;99388.03;;;22.55;52.13
4410;BME280;2218;51.408;7.208;2023-05-09T10:50:33;99389.84;;;22.54;52.78
4410;BME280;2218;51.408;7.208;2023-05-09T10:53:07;99390.00;;;22.53;51.97
4410;BME280;2218;51.408;7.208;2023-05-09T10:55:46;99379.25;;;22.54;52.03
4410;BME280;2218;51.408;7.208;2023-05-09T10:58:23;99376.75;;;22.53;52.46
4410;BME280;2218;51.408;7.208;2023-05-09T11:00:54;99374.13;;;22.53;52.49
4410;BME280;2218;51.408;7.208;2023-05-09T11:03:23;99368.69;;;22.54;51.91
4410;BME280;2218;51.408;7.208;2023-05-09T11:05:52;99369.50;;;22.55;52.33
4410;BME280;2218;51.408;7.208;2023-05-09T11:08:24;99361.72;;;22.53;51.86
4410;BME280;2218;51.408;7.208;2023-05-09T11:10:53;99357.25;;;22.54;52.42
4410;BME280;2218;51.408;7.208;2023-05-09T11:13:22;99353.63;;;22.55;52.29
4410;BME280;2218;51.408;7.208;2023-05-09T11:16:08;99343.03;;;22.55;52.48
4410;BME280;2218;51.408;7.208;2023-05-09T11:18:50;99351.81;;;22.55;52.72
4410;BME280;2218;51.408;7.208;2023-05-09T11:21:19;99346.66;;;22.54;52.73
4410;BME280;2218;51.408;7.208;2023-05-09T11:23:48;99342.19;;;22.54;52.71
4410;BME280;2218;51.408;7.208;2023-05-09T11:26:15;99350.97;;;22.55;52.13
4410;BME280;2218;51.408;7.208;2023-05-09T11:28:52;99348.31;;;22.55;52.79
4410;BME280;2218;51.408;7.208;2023-05-09T11:31:22;99347.50;;;22.54;52.53
4410;BME280;2218;51.408;7.208;2023-05-09T11:33:50;99333.41;;;22.54;52.55
4410;BME280;2218;51.408;7.208;2023-05-09T11:36:30;99338.72;;;22.54;52.47
4410;BME280;2218;51.408;7.208;2023-05-09T11:39:04;99338.00;;;22.52;51.79
4410;BME280;2218;51.408;7.208;2023-05-09T11:41:39;99330.88;;;22.52;50.51
4410;BME280;2218;51.408;7.208;2023-05-09T11:44:14;99327.41;;;22.52;50.59
4410;BME280;2218;51.408;7.208;2023-05-09T11:46:42;99319.34;;;22.53;50.21
4410;BME280;2218;51.408;7.208;2023-05-09T11:49:11;99317.63;;;22.52;49.70
4410;BME280;2218;51.408;7.208;2023-05-09T11:51:38;99311.38;;;22.53;49.86
4410;BME280;2218;51.408;7.208;2023-05-09T11:54:07;99305.13;;;22.54;49.98
4410;BME280;2218;51.408;7.208;2023-05-09T11:56:39;99312.09;;;22.55;49.90
4410;BME280;2218;51.408;7.208;2023-05-09T11:59:07;99307.63;;;22.56;49.38
4410;BME280;2218;51.408;7.208;2023-05-09T12:01:36;99296.19;;;22.55;50.02
4410;BME280;2218;51.408;7.208;2023-05-09T12:04:05;99297.84;;;22.56;49.90
4410;BME280;2218;51.408;7.208;2023-05-09T12:06:34;99287.41;;;22.55;49.27
4410;BME280;2218;51.408;7.208;2023-05-09T12:09:02;99291.72;;;22.56;49.93
4410;BME280;2218;51.408;7.208;2023-05-09T12:11:29;99293.41;;;22.57;50.22
4410;BME280;2218;51.408;7.208;2023-05-09T12:13:57;99287.16;;;22.58;49.68
4410;BME280;2218;51.408;7.208;2023-05-09T12:16:24;99284.50;;;22.58;50.77
4410;BME280;2218;51.408;7.208;2023-05-09T12:18:51;99275.56;;;22.59;50.35
4410;BME280;2218;51.408;7.208;2023-05-09T12:21:20;99272.94;;;22.59;50.58
4410;BME280;2218;51.408;7.208;2023-05-09T12:23:48;99265.81;;;22.59;49.95
4410;BME280;2218;51.408;7.208;2023-05-09T12:26:15;99263.00;;;22.61;49.79
4410;BME280;2218;51.408;7.208;2023-05-09T12:28:43;99257.56;;;22.62;49.72
4410;BME280;2218;51.408;7.208;2023-05-09T12:31:10;99252.41;;;22.61;50.04
4410;BME280;2218;51.408;7.208;2023-05-09T12:33:38;99255.91;;;22.61;50.15
4410;BME280;2218;51.408;7.208;2023-05-09T12:36:09;99247.84;;;22.63;50.09
4410;BME280;2218;51.408;7.208;2023-05-09T12:38:37;99239.91;;;22.63;50.15
4410;BME280;2218;51.408;7.208;2023-05-09T12:41:07;99248.53;;;22.65;49.91
4410;BME280;2218;51.408;7.208;2023-05-09T12:43:36;99239.59;;;22.66;50.04
4410;BME280;2218;51.408;7.208;2023-05-09T12:46:04;99239.59;;;22.66;49.65
4410;BME280;2218;51.408;7.208;2023-05-09T12:48:36;99234.31;;;22.66;49.68
4410;BME280;2218;51.408;7.208;2023-05-09T12:51:03;99233.31;;;22.67;49.55
4410;BME280;2218;51.408;7.208;2023-05-09T12:53:31;99227.91;;;22.68;49.72
4410;BME280;2218;51.408;7.208;2023-05-09T12:56:12;99226.09;;;22.69;49.33
4410;BME280;2218;51.408;7.208;2023-05-09T12:58:48;99224.28;;;22.69;49.38
4410;BME280;2218;51.408;7.208;2023-05-09T13:01:16;99220.63;;;22.70;49.02
4410;BME280;2218;51.408;7.208;2023-05-09T13:03:50;99223.13;;;22.72;49.75
4410;BME280;2218;51.408;7.208;2023-05-09T13:06:18;99213.41;;;22.73;49.17
4410;BME280;2218;51.408;7.208;2023-05-09T13:08:56;99207.97;;;22.74;49.23
4410;BME280;2218;51.408;7.208;2023-05-09T13:11:26;99203.50;;;22.75;49.85
4410;BME280;2218;51.408;7.208;2023-05-09T13:13:55;99204.19;;;22.77;49.58
4410;BME280;2218;51.408;7.208;2023-05-09T13:16:24;99201.41;;;22.78;49.45
4410;BME280;2218;51.408;7.208;2023-05-09T13:18:51;99187.19;;;22.79;49.99
4410;BME280;2218;51.408;7.208;2023-05-09T13:21:18;99193.47;;;22.78;50.04
4410;BME280;2218;51.408;7.208;2023-05-09T13:23:45;99194.41;;;22.77;49.38
4410;BME280;2218;51.408;7.208;2023-05-09T13:26:14;99188.28;;;22.77;49.08
4410;BME280;2218;51.408;7.208;2023-05-09T13:28:43;99185.63;;;22.77;49.27
4410;BME280;2218;51.408;7.208;2023-05-09T13:31:10;99187.44;;;22.76;49.32